Terminal Aerodrome Forecast
Issued by NWS

Home | Current Version | Previous Version | Text Only | Print | Product List | Glossary On
Versions: 1 2 3 4 5 6 7 8 9 10 11 12 13 14 15 16 17
000
FTUS42 KTBW 281700
TAFPGD
TAF
KPGD 281720Z 2818/2918 16008KT P6SM SCT030
     FM282000 22007KT P6SM SCT035
     FM290000 VRB03KT P6SM FEW040
     FM290800 00000KT 3SM BR SCT005
     FM291500 18007KT P6SM SCT020 SCT250=

USA.gov is the U.S. government's official web portal to all federal, state and local government web resources and services.